createdAt,value
2023-04-15T00:00:29.639Z,83.34
2023-04-15T00:01:31.739Z,83.34
2023-04-15T00:02:29.775Z,84.27
2023-04-15T00:07:19.949Z,84.59
2023-04-15T00:29:10.168Z,84.63
2023-04-15T00:29:49.951Z,84.31
2023-04-15T00:30:49.986Z,85.14
2023-04-15T00:31:49.941Z,84.73
2023-04-15T00:32:50.003Z,84.42
2023-04-15T00:33:49.910Z,84.21
2023-04-15T00:34:49.984Z,84.63
2023-04-15T00:35:49.883Z,84.73
2023-04-15T00:36:50.539Z,84.73
2023-04-15T00:37:49.865Z,85.04
2023-04-15T00:38:49.901Z,84.94
2023-04-15T00:39:49.843Z,85.14
2023-04-15T00:40:49.960Z,84.31
2023-04-15T00:41:49.825Z,84.17
2023-04-15T00:42:49.937Z,84.31
2023-04-15T00:43:49.797Z,84.11
2023-04-15T00:44:49.851Z,84.42
2023-04-15T00:45:49.822Z,84.73
2023-04-15T00:46:49.884Z,84.83
2023-04-15T00:47:49.856Z,84.94
2023-04-15T00:48:49.886Z,85.14
2023-04-15T00:49:49.744Z,84.83
2023-04-15T00:50:49.895Z,84.31
2023-04-15T00:51:49.729Z,84.52
2023-04-15T00:52:50.887Z,84.94
2023-04-15T00:53:49.702Z,85.04
2023-04-15T00:54:49.817Z,85.04
2023-04-15T00:55:49.704Z,85.04
2023-04-15T00:57:11.782Z,84.63
2023-04-15T00:57:49.688Z,85.25
2023-04-15T00:59:12.780Z,85.46
2023-04-15T00:59:49.653Z,85.14
2023-04-15T01:00:49.692Z,85.56
2023-04-15T01:01:49.731Z,85.98
2023-04-15T01:02:49.840Z,85.98
2023-04-15T01:03:49.778Z,85.77
2023-04-15T01:04:49.729Z,85.88
2023-04-15T01:05:49.606Z,86.40
2023-04-15T01:06:49.701Z,85.67
2023-04-15T01:07:49.557Z,86.08
2023-04-15T01:08:49.622Z,86.08
2023-04-15T01:09:49.548Z,86.40
2023-04-15T01:10:49.661Z,85.88
2023-04-15T01:11:49.547Z,85.46
2023-04-15T01:12:49.690Z,85.08
2023-04-15T01:13:49.500Z,85.29
2023-04-15T01:14:49.562Z,85.29
2023-04-15T01:15:49.518Z,85.71
2023-04-15T01:16:49.580Z,85.81
2023-04-15T01:17:49.554Z,85.91
2023-04-15T01:18:49.605Z,85.81
2023-04-15T01:19:49.434Z,85.96
2023-04-15T01:20:49.512Z,85.85
2023-04-15T01:21:49.437Z,85.85
2023-04-15T01:22:49.511Z,85.85
2023-04-15T01:23:49.396Z,85.85
2023-04-15T01:24:49.582Z,86.06
2023-04-15T01:25:49.382Z,86.06
2023-04-15T01:26:49.481Z,85.96
2023-04-15T01:27:49.363Z,85.96
2023-04-15T01:28:49.468Z,86.06
2023-04-15T01:29:49.342Z,85.96
2023-04-15T01:30:49.472Z,85.74
2023-04-15T01:31:49.409Z,86.06
2023-04-15T01:32:49.459Z,86.27
2023-04-15T01:33:49.288Z,86.47
2023-04-15T01:34:49.397Z,86.06
2023-04-15T01:35:49.273Z,86.37
2023-04-15T01:36:49.446Z,86.37
2023-04-15T01:37:49.253Z,86.68
2023-04-15T01:38:49.318Z,86.79
2023-04-15T01:39:49.236Z,86.79
2023-04-15T01:40:49.373Z,86.58
2023-04-15T01:41:49.234Z,87.20
2023-04-15T01:42:49.345Z,86.99
2023-04-15T01:43:49.189Z,86.79
2023-04-15T01:44:49.364Z,87.52
2023-04-15T01:45:49.176Z,86.89
2023-04-15T01:46:49.398Z,86.68
2023-04-15T01:47:49.173Z,86.58
2023-04-15T01:49:12.241Z,86.27
2023-04-15T01:49:49.137Z,86.58
2023-04-15T01:50:49.309Z,86.79
2023-04-15T01:51:49.118Z,86.99
2023-04-15T01:52:49.283Z,87.20
2023-04-15T01:53:49.086Z,86.99
2023-04-15T01:54:51.188Z,86.89
2023-04-15T01:55:49.072Z,86.68
2023-04-15T01:56:50.170Z,86.68
2023-04-15T01:57:49.077Z,86.68
2023-04-15T01:58:49.162Z,86.89
2023-04-15T01:59:49.028Z,86.89
2023-04-15T02:00:49.209Z,86.99
2023-04-15T02:01:49.035Z,86.89
2023-04-15T02:02:49.643Z,86.68
2023-04-15T02:03:49.175Z,86.68
2023-04-15T02:04:49.125Z,86.58
2023-04-15T02:05:48.980Z,86.68
2023-04-15T02:06:49.142Z,86.58
2023-04-15T02:07:48.954Z,87.10
2023-04-15T02:08:49.153Z,87.20
2023-04-15T02:09:48.936Z,86.99
2023-04-15T02:10:49.058Z,86.58
2023-04-15T02:11:48.912Z,86.99
2023-04-15T02:12:49.068Z,86.79
2023-04-15T02:13:48.909Z,86.99
2023-04-15T02:14:49.080Z,87.10
2023-04-15T02:15:48.890Z,87.10
2023-04-15T02:16:49.091Z,87.10
2023-04-15T02:17:48.868Z,86.99
2023-04-15T02:18:49.138Z,86.68
2023-04-15T02:19:48.826Z,86.89
2023-04-15T02:20:49.006Z,86.68
2023-04-15T02:21:48.809Z,86.89
2023-04-15T02:22:48.932Z,86.79
2023-04-15T02:23:48.802Z,86.47
2023-04-15T02:24:48.952Z,87.10
2023-04-15T02:25:53.289Z,87.10
2023-04-15T02:26:48.785Z,86.68
2023-04-15T02:27:48.985Z,87.10
2023-04-15T02:28:48.747Z,86.68
2023-04-15T02:29:48.898Z,87.10
2023-04-15T02:30:48.734Z,87.20
2023-04-15T02:31:48.949Z,87.30
2023-04-15T02:32:48.762Z,87.20
2023-04-15T02:33:48.862Z,87.52
2023-04-15T02:34:48.687Z,87.55
2023-04-15T02:35:50.872Z,87.66
2023-04-15T02:36:48.660Z,87.30
2023-04-15T02:37:48.838Z,87.41
2023-04-15T02:38:48.657Z,87.30
2023-04-15T02:39:48.835Z,87.20
2023-04-15T02:40:48.626Z,87.30
2023-04-15T02:41:48.761Z,87.52
2023-04-15T02:42:48.610Z,87.41
2023-04-15T02:43:48.794Z,87.52
2023-04-15T02:44:48.594Z,87.10
2023-04-15T02:45:49.730Z,87.30
2023-04-15T02:46:48.574Z,87.30
2023-04-15T02:47:48.752Z,87.52
2023-04-15T02:48:48.557Z,87.73
2023-04-15T02:49:48.709Z,87.62
2023-04-15T02:50:48.532Z,87.41
2023-04-15T02:51:48.613Z,87.30
2023-04-15T02:52:48.504Z,87.93
2023-04-15T02:53:48.617Z,87.73
2023-04-15T02:54:48.485Z,88.14
2023-04-15T02:55:48.544Z,87.83
2023-04-15T02:56:48.463Z,88.29
2023-04-15T02:57:48.551Z,87.87
2023-04-15T02:58:48.454Z,87.66
2023-04-15T02:59:48.483Z,88.18
2023-04-15T03:00:48.417Z,88.18
2023-04-15T03:01:48.663Z,87.97
2023-04-15T03:02:48.474Z,88.49
2023-04-15T03:03:48.585Z,87.97
2023-04-15T03:04:48.392Z,88.08
2023-04-15T03:05:48.413Z,88.18
2023-04-15T03:06:48.346Z,88.18
2023-04-15T03:07:48.446Z,87.87
2023-04-15T03:08:48.330Z,88.08
2023-04-15T03:09:48.494Z,87.87
2023-04-15T03:10:48.343Z,87.87
2023-04-15T03:11:48.371Z,87.55
2023-04-15T03:12:48.302Z,87.97
2023-04-15T03:13:48.353Z,87.87
2023-04-15T03:14:48.257Z,87.87
2023-04-15T03:15:48.483Z,87.35
2023-04-15T03:16:48.250Z,87.55
2023-04-15T03:18:09.380Z,87.76
2023-04-15T03:18:48.237Z,87.76
2023-04-15T03:19:50.353Z,88.08
2023-04-15T03:20:48.222Z,87.97
2023-04-15T03:21:49.367Z,87.66
2023-04-15T03:22:48.181Z,87.45
2023-04-15T03:23:48.281Z,87.24
2023-04-15T03:24:48.181Z,87.35
2023-04-15T03:25:48.297Z,87.66
2023-04-15T03:26:48.156Z,87.66
2023-04-15T03:27:48.328Z,87.87
2023-04-15T03:28:48.136Z,88.08
2023-04-15T03:29:48.166Z,88.08
2023-04-15T03:30:48.286Z,88.12
2023-04-15T03:31:48.183Z,87.81
2023-04-15T03:32:48.132Z,87.91
2023-04-15T03:33:48.244Z,88.01
2023-04-15T03:34:48.065Z,88.53
2023-04-15T03:35:48.168Z,88.95
2023-04-15T03:36:48.053Z,89.16
2023-04-15T03:37:48.129Z,89.26
2023-04-15T03:38:48.041Z,89.47
2023-04-15T03:39:48.174Z,88.75
2023-04-15T03:40:48.014Z,88.32
2023-04-15T03:41:48.155Z,88.53
2023-04-15T03:42:47.997Z,88.64
2023-04-15T03:43:48.071Z,88.43
2023-04-15T03:44:47.992Z,88.12
2023-04-15T03:45:48.080Z,88.22
2023-04-15T03:46:48.159Z,88.32
2023-04-15T03:47:48.141Z,88.22
2023-04-15T03:48:47.920Z,88.01
2023-04-15T03:49:48.000Z,87.70
2023-04-15T03:50:47.899Z,88.22
2023-04-15T03:51:48.088Z,88.43
2023-04-15T03:52:49.177Z,88.85
2023-04-15T03:53:48.039Z,89.16
2023-04-15T03:54:47.881Z,89.16
2023-04-15T03:55:47.984Z,88.85
2023-04-15T03:56:47.865Z,89.06
2023-04-15T03:57:47.956Z,89.58
2023-04-15T03:58:47.829Z,89.68
2023-04-15T03:59:47.966Z,89.58
2023-04-15T04:00:47.815Z,89.68
2023-04-15T04:01:48.022Z,89.31
2023-04-15T04:02:47.930Z,89.20
2023-04-15T04:03:48.098Z,88.99
2023-04-15T04:04:47.839Z,88.78
2023-04-15T04:05:47.984Z,88.78
2023-04-15T04:06:47.761Z,88.78
2023-04-15T04:07:48.938Z,88.68
2023-04-15T04:08:47.725Z,88.99
2023-04-15T04:09:47.903Z,88.89
2023-04-15T04:10:47.723Z,88.99
2023-04-15T04:11:47.971Z,88.47
2023-04-15T04:12:47.693Z,89.10
2023-04-15T04:15:03.780Z,89.20
2023-04-15T04:16:04.769Z,89.26
2023-04-15T04:17:04.831Z,89.37
2023-04-15T04:18:04.599Z,89.47
2023-04-15T04:19:04.708Z,89.06
2023-04-15T04:20:04.592Z,89.89
2023-04-15T04:21:04.721Z,89.68
2023-04-15T04:22:04.577Z,90.10
2023-04-15T04:23:04.723Z,89.68
2023-04-15T04:24:04.534Z,89.47
2023-04-15T04:25:04.635Z,89.89
2023-04-15T04:26:04.515Z,89.95
2023-04-15T04:27:04.694Z,90.06
2023-04-15T04:28:04.506Z,89.12
2023-04-15T04:29:04.662Z,89.64
2023-04-15T04:30:04.489Z,90.06
2023-04-15T04:31:04.590Z,90.06
2023-04-15T04:32:04.522Z,89.75
2023-04-15T04:33:04.626Z,89.95
2023-04-15T04:34:04.439Z,90.37
2023-04-15T04:35:04.601Z,90.16
2023-04-15T04:36:04.432Z,90.16
2023-04-15T04:37:04.544Z,89.43
2023-04-15T04:38:04.398Z,89.01
2023-04-15T04:39:04.545Z,88.91
2023-04-15T04:40:04.391Z,88.39
2023-04-15T04:41:04.570Z,88.39
2023-04-15T04:42:04.363Z,88.91
2023-04-15T04:43:04.482Z,88.75
2023-04-15T04:44:04.348Z,88.22
2023-04-15T04:45:04.499Z,88.22
2023-04-15T04:46:04.377Z,88.43
2023-04-15T04:47:04.495Z,88.22
2023-04-15T04:48:04.372Z,88.43
2023-04-15T04:49:04.559Z,88.22
2023-04-15T04:50:04.288Z,88.64
2023-04-15T04:51:04.421Z,89.20
2023-04-15T04:52:04.267Z,89.31
2023-04-15T04:53:04.448Z,89.31
2023-04-15T04:54:04.242Z,89.20
2023-04-15T04:55:04.467Z,88.68
2023-04-15T04:56:04.242Z,88.89
2023-04-15T04:57:05.398Z,89.20
2023-04-15T04:58:04.217Z,89.20
2023-04-15T04:59:05.388Z,89.51
2023-04-15T05:00:04.203Z,90.45
2023-04-15T05:01:04.394Z,89.93
2023-04-15T05:02:04.276Z,89.51
2023-04-15T05:03:06.576Z,89.83
2023-04-15T05:04:04.212Z,90.25
2023-04-15T05:05:06.252Z,90.45
2023-04-15T05:06:04.117Z,91.08
2023-04-15T05:07:05.246Z,91.08
2023-04-15T05:08:04.124Z,91.35
2023-04-15T05:09:04.232Z,91.46
2023-04-15T05:10:04.126Z,91.25
2023-04-15T05:11:04.258Z,90.93
2023-04-15T05:12:04.091Z,90.41
2023-04-15T05:13:04.161Z,90.10
2023-04-15T05:14:04.063Z,89.16
2023-04-15T05:15:04.070Z,89.06
2023-04-15T05:16:04.054Z,88.85
2023-04-15T05:17:04.148Z,88.53
2023-04-15T05:18:04.074Z,88.85
2023-04-15T05:19:04.154Z,89.06
2023-04-15T05:20:03.994Z,88.64
2023-04-15T05:21:04.032Z,88.95
2023-04-15T05:22:03.985Z,89.47
2023-04-15T05:23:07.356Z,89.78
2023-04-15T05:24:03.955Z,90.20
2023-04-15T05:25:04.083Z,90.41
2023-04-15T05:26:03.942Z,90.93
2023-04-15T05:27:03.997Z,90.62
2023-04-15T05:28:03.897Z,90.52
2023-04-15T05:29:04.238Z,90.31
2023-04-15T05:30:03.890Z,91.14
2023-04-15T05:31:04.060Z,90.83
2023-04-15T05:32:03.885Z,91.14
2023-04-15T05:33:03.997Z,91.14
2023-04-15T05:34:03.847Z,91.35
2023-04-15T05:35:03.938Z,90.62
2023-04-15T05:36:03.829Z,90.62
2023-04-15T05:37:04.000Z,90.20
2023-04-15T05:38:03.821Z,89.68
2023-04-15T05:39:04.899Z,90.00
2023-04-15T05:40:03.806Z,90.52
2023-04-15T05:41:03.880Z,91.35
2023-04-15T05:42:03.792Z,90.52
2023-04-15T05:43:04.893Z,90.52
2023-04-15T05:44:03.749Z,90.10
2023-04-15T05:45:04.971Z,90.10
2023-04-15T05:46:03.895Z,90.00
2023-04-15T05:47:07.075Z,90.41
2023-04-15T05:48:03.711Z,90.72
2023-04-15T05:49:04.009Z,90.83
2023-04-15T05:50:03.688Z,90.68
2023-04-15T05:51:04.790Z,90.68
2023-04-15T05:52:03.679Z,91.20
2023-04-15T05:53:03.782Z,91.20
2023-04-15T05:54:03.649Z,91.16
2023-04-15T05:55:03.780Z,90.64
2023-04-15T05:56:03.625Z,90.54
2023-04-15T05:57:03.789Z,90.33
2023-04-15T05:58:03.607Z,89.81
2023-04-15T05:59:03.705Z,89.50
2023-04-15T06:00:03.595Z,90.44
2023-04-15T06:01:03.694Z,90.70
2023-04-15T06:02:03.604Z,90.19
2023-04-15T06:03:03.704Z,90.08
2023-04-15T06:04:03.715Z,89.87
2023-04-15T06:05:03.760Z,90.08
2023-04-15T06:06:03.555Z,89.25
2023-04-15T06:07:03.652Z,88.93
2023-04-15T06:08:03.528Z,89.14
2023-04-15T06:09:04.262Z,89.66
2023-04-15T06:10:03.495Z,89.98
2023-04-15T06:11:03.555Z,89.73
2023-04-15T06:12:03.486Z,90.04
2023-04-15T06:13:03.573Z,90.56
2023-04-15T06:14:03.483Z,89.94
2023-04-15T06:15:03.583Z,90.14
2023-04-15T06:16:03.446Z,90.10
2023-04-15T06:17:03.503Z,90.00
2023-04-15T06:18:03.429Z,89.48
2023-04-15T06:19:03.575Z,89.17
2023-04-15T06:20:03.395Z,88.96
2023-04-15T06:21:03.525Z,88.09
2023-04-15T06:22:03.377Z,88.50
2023-04-15T06:23:03.508Z,88.29
2023-04-15T06:24:03.343Z,88.29
2023-04-15T06:25:03.457Z,87.98
2023-04-15T06:26:03.340Z,88.60
2023-04-15T06:27:03.474Z,88.40
2023-04-15T06:28:03.328Z,88.56
2023-04-15T06:29:03.553Z,88.35
2023-04-15T06:30:03.283Z,87.73
2023-04-15T06:31:04.429Z,87.17
2023-04-15T06:32:03.256Z,87.69
2023-04-15T06:33:03.519Z,88.10
2023-04-15T06:34:03.244Z,87.17
2023-04-15T06:35:05.377Z,86.30
2023-04-15T06:36:03.223Z,86.41
2023-04-15T06:37:06.319Z,86.09
2023-04-15T06:38:03.241Z,86.61
2023-04-15T06:39:05.290Z,86.93
2023-04-15T06:40:03.196Z,86.88
2023-04-15T06:41:03.263Z,85.64
2023-04-15T06:42:03.164Z,85.64
2023-04-15T06:43:03.371Z,85.64
2023-04-15T06:44:03.149Z,85.64
2023-04-15T06:45:03.377Z,85.64
2023-04-15T06:46:03.183Z,86.16
2023-04-15T06:47:03.302Z,86.85
2023-04-15T06:48:03.129Z,87.05
2023-04-15T06:49:03.433Z,87.16
2023-04-15T06:50:03.090Z,86.43
2023-04-15T06:51:03.226Z,86.54
2023-04-15T06:52:03.060Z,86.80
2023-04-15T06:53:03.580Z,86.60
2023-04-15T06:54:03.101Z,86.29
2023-04-15T06:55:03.272Z,86.08
2023-04-15T06:56:03.025Z,84.80
2023-04-15T06:57:03.206Z,85.73
2023-04-15T06:58:02.992Z,85.73
2023-04-15T06:59:03.328Z,85.63
2023-04-15T07:00:02.979Z,85.06
2023-04-15T07:01:03.192Z,85.17
2023-04-15T07:02:03.036Z,85.27
2023-04-15T07:03:03.187Z,85.27
2023-04-15T07:04:03.026Z,85.13
2023-04-15T07:05:03.115Z,84.51
2023-04-15T07:06:03.053Z,84.92
2023-04-15T07:07:03.030Z,84.41
2023-04-15T07:08:02.928Z,84.41
2023-04-15T07:09:03.343Z,84.06
2023-04-15T07:10:02.894Z,84.68
2023-04-15T07:11:03.082Z,84.78
2023-04-15T07:12:02.902Z,84.99
2023-04-15T07:13:03.021Z,84.78
2023-04-15T07:14:02.841Z,85.36
2023-04-15T07:15:03.251Z,85.26
2023-04-15T07:16:02.886Z,84.64
2023-04-15T07:17:03.034Z,83.50
2023-04-15T07:18:02.978Z,82.98
2023-04-15T07:19:03.337Z,83.81
2023-04-15T07:20:02.777Z,82.88
2023-04-15T07:21:02.929Z,83.05
2023-04-15T07:22:02.752Z,83.15
2023-04-15T07:23:03.001Z,81.91
2023-04-15T07:24:02.820Z,81.70
2023-04-15T07:25:04.927Z,83.36
2023-04-15T07:26:02.715Z,83.11
2023-04-15T07:27:04.933Z,82.80
2023-04-15T07:28:02.715Z,82.70
2023-04-15T07:30:19.657Z,82.08
2023-04-15T07:31:20.465Z,82.25
2023-04-15T07:32:20.706Z,82.04
2023-04-15T07:33:20.431Z,82.25
2023-04-15T07:34:20.568Z,82.31
2023-04-15T07:35:20.400Z,82.10
2023-04-15T07:36:20.463Z,81.90
2023-04-15T07:37:20.414Z,82.28
2023-04-15T07:38:24.208Z,80.73
2023-04-15T07:39:20.464Z,79.80
2023-04-15T07:40:20.521Z,80.07
2023-04-15T07:41:20.350Z,80.28
2023-04-15T07:42:20.422Z,80.90
2023-04-15T07:43:20.324Z,80.79
2023-04-15T07:44:20.420Z,82.03
2023-04-15T07:45:20.334Z,80.24
2023-04-15T07:46:20.486Z,80.65
2023-04-15T07:47:20.320Z,80.86
2023-04-15T07:48:22.743Z,80.65
2023-04-15T07:49:20.264Z,79.21
2023-04-15T07:50:22.392Z,78.14
2023-04-15T07:51:20.247Z,79.48
2023-04-15T07:52:22.325Z,79.79
2023-04-15T07:53:20.534Z,78.93
2023-04-15T07:54:20.348Z,76.25
2023-04-15T07:55:20.209Z,76.15
2023-04-15T07:56:20.293Z,76.93
2023-04-15T07:57:20.176Z,77.14
2023-04-15T07:58:21.306Z,76.79
2023-04-15T07:59:20.180Z,76.28
2023-04-15T08:00:20.380Z,76.79
2023-04-15T08:01:20.150Z,75.12
2023-04-15T08:02:20.429Z,74.60
2023-04-15T08:03:20.249Z,74.57
2023-04-15T08:04:20.367Z,73.09
2023-04-15T08:05:20.139Z,72.68
2023-04-15T08:06:20.172Z,70.11
2023-04-15T08:07:20.071Z,69.36
2023-04-15T08:08:20.320Z,69.98
2023-04-15T08:09:20.109Z,68.51
2023-04-15T08:10:20.225Z,69.81
2023-04-15T08:11:20.110Z,70.53
2023-04-15T08:12:20.093Z,71.76
2023-04-15T08:13:20.034Z,68.34
2023-04-15T08:14:20.119Z,68.13
2023-04-15T08:15:20.024Z,67.59
2023-04-15T08:16:20.271Z,67.18
2023-04-15T08:17:19.994Z,67.18
2023-04-15T08:18:20.037Z,68.00
2023-04-15T08:19:19.966Z,68.62
2023-04-15T08:20:20.110Z,66.94
2023-04-15T08:21:19.947Z,68.96
2023-04-15T08:22:21.222Z,67.11
2023-04-15T08:23:19.953Z,69.06
2023-04-15T08:24:19.975Z,67.70
2023-04-15T08:25:19.883Z,66.67
2023-04-15T08:26:20.036Z,69.85
2023-04-15T08:27:19.880Z,68.01
2023-04-15T08:28:20.061Z,66.78
2023-04-15T08:29:19.841Z,66.13
2023-04-15T08:30:19.975Z,66.03
2023-04-15T08:31:19.865Z,65.69
2023-04-15T08:32:19.983Z,65.08
2023-04-15T08:33:19.848Z,65.90
2023-04-15T08:34:19.950Z,62.93
2023-04-15T08:35:19.795Z,63.10
2023-04-15T08:36:41.866Z,64.43
2023-04-15T08:37:19.775Z,62.39
2023-04-15T08:38:21.927Z,64.03
2023-04-15T08:39:19.764Z,64.71
2023-04-15T08:40:20.911Z,63.48
2023-04-15T08:41:19.734Z,64.61
2023-04-15T08:42:19.832Z,56.63
2023-04-15T08:43:19.707Z,57.56
2023-04-15T08:44:21.798Z,60.01
2023-04-15T08:45:19.688Z,56.94
2023-04-15T08:46:19.851Z,57.15
2023-04-15T08:47:19.685Z,58.48
2023-04-15T08:48:19.731Z,55.62
2023-04-15T08:49:19.670Z,53.88
2023-04-15T08:50:19.747Z,55.82
2023-04-15T08:51:19.619Z,53.67
2023-04-15T08:52:19.768Z,53.16
2023-04-15T08:53:19.607Z,52.65
2023-04-15T08:54:19.709Z,53.47
2023-04-15T08:55:19.605Z,57.35
2023-04-15T08:56:19.717Z,54.08
2023-04-15T08:57:19.572Z,57.04
2023-04-15T08:58:19.757Z,54.69
2023-04-15T08:59:19.553Z,54.49
2023-04-15T09:00:19.680Z,54.39
2023-04-15T09:01:19.580Z,53.88
2023-04-15T09:02:19.761Z,55.62
2023-04-15T09:03:19.575Z,55.41
2023-04-15T09:04:19.884Z,53.67
2023-04-15T09:05:19.491Z,56.05
2023-04-15T09:06:19.705Z,56.97
2023-04-15T09:07:19.459Z,54.82
2023-04-15T09:08:19.672Z,54.82
2023-04-15T09:09:19.450Z,55.84
2023-04-15T09:10:19.598Z,55.74
2023-04-15T09:11:20.218Z,56.87
2023-04-15T09:12:19.601Z,55.43
2023-04-15T09:13:19.431Z,54.31
2023-04-15T09:14:19.611Z,55.33
2023-04-15T09:15:19.389Z,55.71
2023-04-15T09:16:19.605Z,55.10
2023-04-15T09:17:19.465Z,54.80
2023-04-15T09:18:19.534Z,53.57
2023-04-15T09:19:19.332Z,53.98
2023-04-15T09:20:19.510Z,54.90
2023-04-15T09:21:19.319Z,55.82
2023-04-15T09:22:19.474Z,55.41
2023-04-15T09:23:19.312Z,52.85
2023-04-15T09:24:19.507Z,53.57
2023-04-15T09:25:19.291Z,53.06
2023-04-15T09:26:21.434Z,54.16
2023-04-15T09:27:19.263Z,53.34
2023-04-15T09:28:20.421Z,52.93
2023-04-15T09:29:19.225Z,52.42
2023-04-15T09:30:19.352Z,53.23
2023-04-15T09:31:19.240Z,54.77
2023-04-15T09:32:19.331Z,58.34
2023-04-15T09:33:19.261Z,57.32
2023-04-15T09:34:19.451Z,55.89
2023-04-15T09:35:19.262Z,56.20
2023-04-15T09:36:19.506Z,53.85
2023-04-15T09:37:31.507Z,54.87
2023-04-15T09:38:19.161Z,55.08
2023-04-15T09:39:19.329Z,56.20
2023-04-15T09:40:19.139Z,56.20
2023-04-15T09:41:19.384Z,55.36
2023-04-15T09:42:19.108Z,57.40
2023-04-15T09:43:19.239Z,53.03
2023-04-15T09:44:19.062Z,52.22
2023-04-15T09:45:19.217Z,54.26
2023-04-15T09:46:19.106Z,55.89
2023-04-15T09:47:19.334Z,56.51
2023-04-15T09:48:19.032Z,51.60
2023-04-15T09:49:19.202Z,54.46
2023-04-15T09:50:19.010Z,57.22
2023-04-15T09:51:19.482Z,52.93
2023-04-15T09:52:18.998Z,56.51
2023-04-15T09:53:19.201Z,52.34
2023-04-15T09:54:18.977Z,51.32
2023-04-15T09:55:19.254Z,52.14
2023-04-15T09:56:18.977Z,51.73
2023-04-15T09:57:19.260Z,53.88
2023-04-15T09:58:19.003Z,53.67
2023-04-15T09:59:21.829Z,57.56
2023-04-15T10:00:18.915Z,54.59
2023-04-15T10:01:19.120Z,56.02
2023-04-15T10:02:18.962Z,52.34
2023-04-15T10:03:19.327Z,53.36
2023-04-15T10:04:19.029Z,53.36
2023-04-15T10:05:18.962Z,55.18
2023-04-15T10:06:19.178Z,53.85
2023-04-15T10:07:18.993Z,53.03
2023-04-15T10:08:18.846Z,54.46
2023-04-15T10:09:18.932Z,53.64
2023-04-15T10:10:18.812Z,53.75
2023-04-15T10:11:18.908Z,51.73
2023-04-15T10:12:18.793Z,55.71
2023-04-15T10:13:18.897Z,55.28
2023-04-15T10:14:18.757Z,52.72
2023-04-15T10:15:18.803Z,53.13
2023-04-15T10:16:18.817Z,56.30
2023-04-15T10:17:18.825Z,51.40
2023-04-15T10:18:18.733Z,51.40
2023-04-15T10:19:18.844Z,52.22
2023-04-15T10:20:18.721Z,52.32
2023-04-15T10:21:18.908Z,53.95
2023-04-15T10:22:18.685Z,51.09
2023-04-15T10:23:18.750Z,51.91
2023-04-15T10:24:18.650Z,50.27
2023-04-15T10:25:18.807Z,51.60
2023-04-15T10:26:18.639Z,52.62
2023-04-15T10:27:18.748Z,53.34
2023-04-15T10:28:18.633Z,52.93
2023-04-15T10:29:18.699Z,51.19
2023-04-15T10:30:18.602Z,52.09
2023-04-15T10:31:18.764Z,55.58
2023-04-15T10:32:18.672Z,51.27
2023-04-15T10:33:18.610Z,52.91
2023-04-15T10:34:18.569Z,51.17
2023-04-15T10:35:18.629Z,52.91
2023-04-15T10:36:18.545Z,53.01
2023-04-15T10:37:18.578Z,53.52
2023-04-15T10:38:18.531Z,52.80
2023-04-15T10:39:18.602Z,52.09
2023-04-15T10:40:18.495Z,52.19
2023-04-15T10:41:20.490Z,53.92
2023-04-15T10:42:18.514Z,56.07
2023-04-15T10:43:18.574Z,52.09
2023-04-15T10:44:18.457Z,54.23
2023-04-15T10:45:18.479Z,53.72
2023-04-15T10:46:18.482Z,51.68
2023-04-15T10:47:18.516Z,51.57
2023-04-15T10:48:18.426Z,54.23
2023-04-15T10:49:18.435Z,54.64
2023-04-15T10:50:18.402Z,56.04
2023-04-15T10:51:18.423Z,53.90
2023-04-15T10:52:18.388Z,52.27
2023-04-15T10:53:19.417Z,55.41
2023-04-15T10:54:18.379Z,57.96
2023-04-15T10:55:18.462Z,58.57
2023-04-15T10:56:18.323Z,53.75
2023-04-15T10:57:18.406Z,56.91
2023-04-15T10:58:18.312Z,54.26
2023-04-15T10:59:18.909Z,54.97
2023-04-15T11:00:18.291Z,54.87
2023-04-15T11:01:18.394Z,51.20
2023-04-15T11:02:18.373Z,52.83
2023-04-15T11:03:18.423Z,56.40
2023-04-15T11:04:18.320Z,55.38
2023-04-15T11:05:18.347Z,50.79
2023-04-15T11:06:18.243Z,50.59
2023-04-15T11:07:18.366Z,51.43
2023-04-15T11:08:18.224Z,52.45
2023-04-15T11:09:18.295Z,53.88
2023-04-15T11:10:18.201Z,52.58
2023-04-15T11:11:18.242Z,55.43
2023-04-15T11:12:18.180Z,54.13
2023-04-15T11:13:18.265Z,53.11
2023-04-15T11:14:18.145Z,53.62
2023-04-15T11:15:18.193Z,53.03
2023-04-15T11:16:18.187Z,52.93
2023-04-15T11:17:18.229Z,52.32
2023-04-15T11:18:18.112Z,55.71
2023-04-15T11:19:18.190Z,58.17
2023-04-15T11:20:18.075Z,54.90
2023-04-15T11:21:18.092Z,56.02
2023-04-15T11:22:18.051Z,55.00
2023-04-15T11:23:18.153Z,55.51
2023-04-15T11:24:18.039Z,55.92
2023-04-15T11:25:18.168Z,56.94
2023-04-15T11:26:18.010Z,55.71
2023-04-15T11:27:18.042Z,55.92
2023-04-15T11:28:18.009Z,57.56
2023-04-15T11:29:18.104Z,55.82
2023-04-15T11:30:17.980Z,55.92
2023-04-15T11:31:18.426Z,55.30
2023-04-15T11:32:18.225Z,54.69
2023-04-15T11:33:18.022Z,56.74
2023-04-15T11:34:17.930Z,56.94
2023-04-15T11:35:17.991Z,58.48
2023-04-15T11:36:17.913Z,59.50
2023-04-15T11:37:18.163Z,60.42
2023-04-15T11:38:17.909Z,61.82
2023-04-15T11:39:17.949Z,60.28
2023-04-15T11:40:17.883Z,57.22
2023-04-15T11:41:17.958Z,56.10
2023-04-15T11:42:17.857Z,55.97
2023-04-15T11:43:17.945Z,55.46
2023-04-15T11:44:17.834Z,56.89
2023-04-15T11:45:17.853Z,58.73
2023-04-15T11:46:17.856Z,56.79
2023-04-15T11:47:17.991Z,56.48
2023-04-15T11:48:17.782Z,56.89
2023-04-15T11:49:17.911Z,54.33
2023-04-15T11:50:17.793Z,53.92
2023-04-15T11:51:17.834Z,54.85
2023-04-15T11:52:17.765Z,56.48
2023-04-15T11:53:17.795Z,54.44
2023-04-15T11:54:17.724Z,53.72
2023-04-15T11:55:17.808Z,55.66
2023-04-15T11:56:17.713Z,55.15
2023-04-15T11:57:17.717Z,56.79
2023-04-15T11:58:17.676Z,56.99
2023-04-15T11:59:17.733Z,56.17
2023-04-15T12:00:17.666Z,56.38
2023-04-15T12:01:17.849Z,57.20
2023-04-15T12:02:17.757Z,60.05
2023-04-15T12:03:17.932Z,60.74
2023-04-15T12:04:17.859Z,60.33
2023-04-15T12:05:17.870Z,55.63
2023-04-15T12:06:17.601Z,58.09
2023-04-15T12:07:17.691Z,57.55
2023-04-15T12:08:17.589Z,53.88
2023-04-15T12:09:17.660Z,53.88
2023-04-15T12:10:17.567Z,53.47
2023-04-15T12:11:17.661Z,55.10
2023-04-15T12:12:17.536Z,53.67
2023-04-15T12:13:17.604Z,55.61
2023-04-15T12:14:17.525Z,54.28
2023-04-15T12:15:17.534Z,57.14
2023-04-15T12:16:17.655Z,56.32
2023-04-15T12:17:17.642Z,56.02
2023-04-15T12:18:17.494Z,55.30
2023-04-15T12:19:17.628Z,52.45
2023-04-15T12:20:17.449Z,54.21
2023-04-15T12:21:17.490Z,54.11
2023-04-15T12:22:17.507Z,54.31
2023-04-15T12:23:17.473Z,56.27
2023-04-15T12:24:17.413Z,53.21
2023-04-15T12:25:17.593Z,54.03
2023-04-15T12:26:17.381Z,53.31
2023-04-15T12:27:17.460Z,53.72
2023-04-15T12:28:17.367Z,53.75
2023-04-15T12:29:17.411Z,51.81
2023-04-15T12:30:17.347Z,53.54
2023-04-15T12:31:17.504Z,52.01
2023-04-15T12:32:17.479Z,52.01
2023-04-15T12:33:17.360Z,52.01
2023-04-15T12:34:17.317Z,51.91
2023-04-15T12:35:17.343Z,52.32
2023-04-15T12:36:17.294Z,50.35
2023-04-15T12:37:17.471Z,50.96
2023-04-15T12:38:17.267Z,50.76
2023-04-15T12:39:17.407Z,51.27
2023-04-15T12:40:17.248Z,52.09
2023-04-15T12:41:17.339Z,52.29
2023-04-15T12:42:17.275Z,53.01
2023-04-15T12:43:17.317Z,52.39
2023-04-15T12:44:17.212Z,51.78
2023-04-15T12:45:17.345Z,54.95
2023-04-15T12:46:17.221Z,55.56
2023-04-15T12:47:17.324Z,55.97
2023-04-15T12:48:17.174Z,53.70
2023-04-15T12:49:17.223Z,53.49
2023-04-15T12:50:17.145Z,52.88
2023-04-15T12:51:17.273Z,52.47
2023-04-15T12:52:17.147Z,52.17
2023-04-15T12:53:17.156Z,50.53
2023-04-15T12:54:17.113Z,51.96
2023-04-15T12:55:17.237Z,50.53
2023-04-15T12:56:17.097Z,53.88
2023-04-15T12:57:17.198Z,51.53
2023-04-15T12:58:17.106Z,51.22
2023-04-15T12:59:17.097Z,50.92
2023-04-15T13:00:17.060Z,55.58
2023-04-15T13:01:17.120Z,51.61
2023-04-15T13:02:17.116Z,52.22
2023-04-15T13:03:17.219Z,51.91
2023-04-15T13:04:17.073Z,51.38
2023-04-15T13:05:17.028Z,50.97
2023-04-15T13:06:16.987Z,52.09
2023-04-15T13:07:17.069Z,50.56
2023-04-15T13:08:16.976Z,52.01
2023-04-15T13:09:17.069Z,52.12
2023-04-15T13:10:16.942Z,52.32
2023-04-15T13:11:17.040Z,52.32
2023-04-15T13:12:16.909Z,53.14
2023-04-15T13:13:16.978Z,53.64
2023-04-15T13:14:16.908Z,52.93
2023-04-15T13:15:16.990Z,52.83
2023-04-15T13:16:16.942Z,54.16
2023-04-15T13:17:17.018Z,52.22
2023-04-15T13:18:16.848Z,52.83
2023-04-15T13:19:16.924Z,54.26